createdAt,value
2023-01-18T00:01:19.651Z,5.41
2023-01-18T00:03:48.127Z,5.46
2023-01-18T00:06:16.620Z,5.45
2023-01-18T00:08:44.743Z,5.43
2023-01-18T00:11:15.642Z,5.40
2023-01-18T00:13:43.855Z,5.42
2023-01-18T00:16:14.866Z,5.59
2023-01-18T00:18:43.024Z,5.39
2023-01-18T00:21:12.304Z,5.57
2023-01-18T00:23:39.831Z,5.54
2023-01-18T00:26:09.892Z,5.72
2023-01-18T00:28:40.069Z,5.67
2023-01-18T00:31:20.364Z,5.85
2023-01-18T00:33:50.753Z,6.00
2023-01-18T00:36:18.925Z,5.88
2023-01-18T00:38:54.132Z,5.92
2023-01-18T00:41:23.239Z,5.77
2023-01-18T00:43:52.034Z,5.96
2023-01-18T00:46:23.069Z,5.83
2023-01-18T00:48:52.422Z,5.84
2023-01-18T00:51:25.533Z,5.73
2023-01-18T00:53:53.670Z,5.67
2023-01-18T00:56:22.595Z,5.72
2023-01-18T00:58:50.672Z,5.91
2023-01-18T01:01:18.317Z,5.71
2023-01-18T01:04:04.904Z,5.83
2023-01-18T01:06:47.164Z,5.81
2023-01-18T01:09:21.620Z,5.88
2023-01-18T01:12:09.123Z,5.76
2023-01-18T01:14:58.938Z,5.74
2023-01-18T01:17:47.607Z,5.69
2023-01-18T01:20:34.765Z,5.50
2023-01-18T01:23:34.048Z,5.52
2023-01-18T01:26:08.515Z,5.75
2023-01-18T01:28:41.109Z,5.66
2023-01-18T01:31:12.083Z,5.64
2023-01-18T01:33:40.404Z,5.58
2023-01-18T01:36:14.353Z,5.46
2023-01-18T01:38:42.368Z,5.56
2023-01-18T01:41:33.751Z,5.57
2023-01-18T01:44:04.779Z,5.65
2023-01-18T01:46:45.516Z,5.75
2023-01-18T01:49:21.607Z,5.66
2023-01-18T01:52:02.423Z,5.48
2023-01-18T01:54:42.309Z,5.50
2023-01-18T01:57:10.969Z,5.42
2023-01-18T01:59:43.296Z,5.33
2023-01-18T02:02:11.747Z,5.44
2023-01-18T02:04:44.289Z,5.50
2023-01-18T02:07:13.690Z,5.52
2023-01-18T02:09:41.852Z,5.60
2023-01-18T02:12:09.585Z,5.42
2023-01-18T02:14:37.207Z,5.43
2023-01-18T02:17:33.449Z,5.40
2023-01-18T02:20:10.139Z,5.44
2023-01-18T02:23:23.849Z,5.43
2023-01-18T02:26:09.513Z,5.41
2023-01-18T02:28:39.649Z,5.28
2023-01-18T02:31:17.771Z,5.28
2023-01-18T02:33:47.192Z,5.17
2023-01-18T02:36:31.067Z,5.08
2023-01-18T02:39:04.102Z,5.14
2023-01-18T02:42:04.813Z,5.06
2023-01-18T02:45:04.623Z,4.99
2023-01-18T02:47:33.954Z,4.79
2023-01-18T02:50:03.730Z,4.80
2023-01-18T02:52:47.353Z,4.75
2023-01-18T02:55:41.250Z,4.56
2023-01-18T02:58:32.502Z,4.65
2023-01-18T03:01:05.528Z,4.56
2023-01-18T03:03:35.104Z,4.65
2023-01-18T03:06:07.900Z,4.61
2023-01-18T03:08:43.012Z,4.60
2023-01-18T03:11:39.736Z,4.60
2023-01-18T03:14:31.760Z,4.73
2023-01-18T03:17:17.779Z,4.84
2023-01-18T03:20:08.069Z,4.93
2023-01-18T03:23:12.721Z,5.05
2023-01-18T03:25:43.077Z,4.96
2023-01-18T03:28:36.607Z,5.10
2023-01-18T03:31:28.246Z,5.08
2023-01-18T03:34:20.283Z,5.20
2023-01-18T03:36:54.296Z,5.02
2023-01-18T03:39:34.086Z,4.96
2023-01-18T03:42:06.785Z,5.07
2023-01-18T03:44:37.365Z,5.05
2023-01-18T03:47:06.713Z,5.09
2023-01-18T03:49:35.551Z,5.05
2023-01-18T03:52:22.503Z,5.08
2023-01-18T03:55:10.662Z,5.04
2023-01-18T03:57:50.561Z,5.05
2023-01-18T04:00:18.879Z,5.16
2023-01-18T04:02:49.194Z,4.94
2023-01-18T04:05:18.283Z,4.86
2023-01-18T04:07:45.885Z,4.85
2023-01-18T04:10:13.849Z,4.76
2023-01-18T04:12:41.396Z,4.72
2023-01-18T04:15:09.718Z,4.77
2023-01-18T04:17:37.280Z,4.96
2023-01-18T04:20:05.461Z,4.81
2023-01-18T04:22:33.122Z,4.82
2023-01-18T04:25:01.032Z,4.75
2023-01-18T04:27:28.624Z,4.76
2023-01-18T04:29:58.556Z,4.74
2023-01-18T04:32:26.368Z,4.88
2023-01-18T04:34:54.475Z,4.88
2023-01-18T04:37:30.436Z,4.98
2023-01-18T04:39:58.152Z,4.87
2023-01-18T04:42:27.062Z,4.94
2023-01-18T04:44:54.560Z,5.03
2023-01-18T04:47:22.789Z,5.07
2023-01-18T04:49:50.360Z,5.07
2023-01-18T04:52:19.283Z,5.13
2023-01-18T04:54:46.879Z,5.12
2023-01-18T04:57:14.685Z,5.01
2023-01-18T04:59:46.060Z,4.96
2023-01-18T05:02:16.017Z,5.06
2023-01-18T05:04:45.069Z,4.94
2023-01-18T05:07:13.149Z,5.11
2023-01-18T05:09:40.778Z,4.94
2023-01-18T05:12:08.709Z,4.85
2023-01-18T05:14:36.376Z,5.03
2023-01-18T05:17:04.022Z,5.07
2023-01-18T05:19:31.631Z,5.02
2023-01-18T05:21:59.691Z,4.86
2023-01-18T05:24:29.806Z,4.90
2023-01-18T05:26:57.612Z,4.86
2023-01-18T05:29:25.524Z,4.86
2023-01-18T05:31:53.645Z,4.79
2023-01-18T05:34:21.207Z,4.78
2023-01-18T05:36:49.470Z,4.98
2023-01-18T05:39:17.091Z,5.13
2023-01-18T05:41:45.066Z,5.04
2023-01-18T05:44:13.090Z,5.16
2023-01-18T05:46:40.587Z,5.16
2023-01-18T05:49:08.117Z,5.11
2023-01-18T05:51:35.951Z,5.18
2023-01-18T05:54:03.786Z,4.97
2023-01-18T05:56:31.695Z,5.18
2023-01-18T05:58:59.639Z,4.97
2023-01-18T06:01:29.405Z,4.83
2023-01-18T06:03:56.885Z,5.00
2023-01-18T06:06:24.621Z,5.14
2023-01-18T06:08:52.631Z,5.09
2023-01-18T06:11:20.091Z,4.91
2023-01-18T06:13:47.958Z,5.24
2023-01-18T06:16:15.452Z,5.32
2023-01-18T06:18:43.138Z,5.26
2023-01-18T06:21:11.946Z,5.25
2023-01-18T06:23:40.088Z,5.33
2023-01-18T06:26:08.083Z,4.96
2023-01-18T06:28:35.860Z,4.97
2023-01-18T06:31:05.520Z,5.11
2023-01-18T06:33:35.072Z,5.06
2023-01-18T06:36:03.427Z,5.07
2023-01-18T06:38:31.488Z,5.09
2023-01-18T06:40:59.593Z,5.18
2023-01-18T06:43:27.138Z,5.14
2023-01-18T06:45:56.503Z,4.72
2023-01-18T06:48:26.380Z,4.51
2023-01-18T06:50:57.080Z,4.73
2023-01-18T06:53:25.833Z,4.92
2023-01-18T06:55:58.232Z,5.03
2023-01-18T06:58:28.180Z,5.19
2023-01-18T07:00:56.566Z,5.15
2023-01-18T07:03:25.797Z,5.29
2023-01-18T07:05:58.794Z,5.32
2023-01-18T07:08:27.492Z,5.43
2023-01-18T07:10:55.392Z,5.27
2023-01-18T07:13:23.980Z,5.23
2023-01-18T07:16:01.161Z,5.13
2023-01-18T07:18:30.541Z,5.11
2023-01-18T07:21:10.120Z,5.00
2023-01-18T07:23:39.972Z,5.14
2023-01-18T07:26:15.582Z,5.31
2023-01-18T07:28:47.603Z,5.47
2023-01-18T07:31:16.545Z,5.49
2023-01-18T07:33:44.675Z,5.43
2023-01-18T07:36:12.945Z,5.29
2023-01-18T07:38:40.634Z,5.29
2023-01-18T07:41:11.248Z,5.32
2023-01-18T07:43:38.858Z,5.37
2023-01-18T07:46:08.400Z,5.44
2023-01-18T07:48:38.803Z,5.54
2023-01-18T07:51:08.876Z,5.65
2023-01-18T07:53:37.952Z,5.48
2023-01-18T07:56:09.377Z,5.69
2023-01-18T07:58:37.124Z,5.67
2023-01-18T08:01:07.173Z,5.54
2023-01-18T08:03:36.362Z,5.70
2023-01-18T08:06:07.306Z,5.88
2023-01-18T08:08:38.153Z,5.76
2023-01-18T08:11:07.449Z,5.78
2023-01-18T08:13:35.854Z,5.63
2023-01-18T08:16:06.674Z,5.73
2023-01-18T08:18:34.876Z,5.83
2023-01-18T08:21:03.567Z,5.75
2023-01-18T08:23:34.224Z,5.72
2023-01-18T08:26:05.994Z,5.52
2023-01-18T08:28:34.907Z,5.51
2023-01-18T08:31:12.471Z,5.52
2023-01-18T08:33:46.041Z,5.60
2023-01-18T08:36:22.530Z,5.63
2023-01-18T08:38:56.871Z,5.66
2023-01-18T08:41:28.632Z,5.97
2023-01-18T08:43:57.813Z,5.78
2023-01-18T08:46:26.218Z,6.14
2023-01-18T08:48:55.773Z,6.35
2023-01-18T08:51:26.148Z,5.60
2023-01-18T08:53:56.624Z,5.53
2023-01-18T08:56:25.030Z,5.15
2023-01-18T08:58:52.812Z,5.04
2023-01-18T09:01:23.471Z,5.16
2023-01-18T09:03:55.224Z,5.05
2023-01-18T09:06:22.972Z,5.04
2023-01-18T09:08:51.593Z,5.05
2023-01-18T09:11:19.193Z,5.25
2023-01-18T09:13:59.748Z,4.80
2023-01-18T09:16:28.376Z,4.80
2023-01-18T09:18:57.639Z,4.80
2023-01-18T09:21:28.044Z,4.71
2023-01-18T09:23:56.407Z,4.95
2023-01-18T09:26:24.366Z,4.74
2023-01-18T09:28:53.466Z,4.70
2023-01-18T09:31:23.247Z,4.39
2023-01-18T09:33:53.999Z,4.78
2023-01-18T09:36:29.517Z,5.04
2023-01-18T09:38:57.550Z,5.36
2023-01-18T09:41:42.901Z,4.88
2023-01-18T09:44:34.853Z,5.23
2023-01-18T09:47:06.111Z,5.49
2023-01-18T09:49:57.502Z,5.32
2023-01-18T09:52:50.877Z,5.45
2023-01-18T09:55:29.134Z,5.59
2023-01-18T09:58:38.913Z,5.62
2023-01-18T10:01:12.873Z,5.47
2023-01-18T10:03:42.020Z,5.50
2023-01-18T10:06:15.739Z,5.60
2023-01-18T10:09:12.131Z,6.39
2023-01-18T10:11:47.510Z,6.31
2023-01-18T10:14:22.653Z,5.50
2023-01-18T10:17:01.678Z,5.69
2023-01-18T10:19:31.784Z,5.56
2023-01-18T10:22:29.051Z,5.63
2023-01-18T10:25:10.589Z,5.50
2023-01-18T10:27:43.581Z,5.55
2023-01-18T10:30:39.731Z,5.62
2023-01-18T10:33:17.279Z,5.51
2023-01-18T10:35:48.155Z,5.52
2023-01-18T10:38:20.671Z,5.56
2023-01-18T10:41:02.590Z,5.56
2023-01-18T10:43:32.053Z,5.46
2023-01-18T10:45:59.588Z,5.45
2023-01-18T10:48:31.407Z,5.54
2023-01-18T10:51:02.025Z,5.70
2023-01-18T10:53:35.318Z,5.87
2023-01-18T10:56:17.111Z,5.98
2023-01-18T10:58:51.026Z,5.98
2023-01-18T11:01:24.028Z,6.20
2023-01-18T11:03:55.646Z,6.18
2023-01-18T11:06:26.362Z,6.22
2023-01-18T11:08:54.103Z,6.51
2023-01-18T11:11:50.023Z,6.66
2023-01-18T11:14:29.437Z,6.77
2023-01-18T11:17:11.566Z,6.71
2023-01-18T11:19:41.772Z,6.65
2023-01-18T11:22:17.751Z,7.15
2023-01-18T11:24:46.003Z,7.29
2023-01-18T11:27:21.398Z,7.10
2023-01-18T11:29:50.541Z,7.44
2023-01-18T11:32:25.269Z,7.30
2023-01-18T11:38:48.662Z,8.28
2023-01-18T11:41:23.575Z,8.90
2023-01-18T11:44:06.562Z,9.43
2023-01-18T11:46:51.020Z,9.59
2023-01-18T11:49:24.676Z,10.08
2023-01-18T11:52:02.263Z,10.61
2023-01-18T11:54:40.666Z,11.08
2023-01-18T11:57:12.835Z,11.10
2023-01-18T11:59:48.739Z,10.88
2023-01-18T12:02:56.249Z,10.68
2023-01-18T12:05:37.435Z,8.84
2023-01-18T12:08:14.387Z,9.44
2023-01-18T12:11:17.853Z,9.09
2023-01-18T12:14:03.565Z,8.22
2023-01-18T12:16:33.844Z,7.23
2023-01-18T12:19:16.454Z,7.37
2023-01-18T12:22:12.813Z,7.42
2023-01-18T12:24:45.795Z,7.38
2023-01-18T12:27:34.494Z,7.24
2023-01-18T12:30:21.542Z,7.36
2023-01-18T12:33:02.308Z,7.47
2023-01-18T12:35:42.766Z,8.00
2023-01-18T12:38:24.716Z,8.70
2023-01-18T12:41:11.920Z,9.00
2023-01-18T12:44:10.881Z,8.88
2023-01-18T12:47:00.000Z,7.71
2023-01-18T12:49:34.998Z,7.20
2023-01-18T12:52:18.175Z,7.02
2023-01-18T12:54:58.734Z,6.65
2023-01-18T12:57:26.930Z,6.81
2023-01-18T12:59:59.837Z,6.72
2023-01-18T13:02:36.664Z,6.61
2023-01-18T13:05:23.619Z,6.65
2023-01-18T13:08:01.337Z,6.50
2023-01-18T13:10:29.832Z,6.86
2023-01-18T13:12:58.459Z,7.04
2023-01-18T13:15:42.663Z,7.11
2023-01-18T13:18:21.849Z,7.13
2023-01-18T13:21:16.815Z,7.18
2023-01-18T13:24:05.419Z,7.16
2023-01-18T13:26:34.585Z,7.19
2023-01-18T13:29:28.473Z,6.95
2023-01-18T13:31:57.722Z,6.93
2023-01-18T13:34:31.995Z,7.25
2023-01-18T13:37:13.965Z,7.61
2023-01-18T13:39:48.603Z,7.55
2023-01-18T13:42:25.032Z,7.88
2023-01-18T13:45:19.152Z,8.22
2023-01-18T13:47:50.219Z,8.31
2023-01-18T13:50:39.516Z,8.44
2023-01-18T13:53:14.031Z,8.60
2023-01-18T13:55:48.039Z,8.14
2023-01-18T13:58:26.558Z,8.16
2023-01-18T14:00:58.358Z,8.01
2023-01-18T14:03:29.907Z,8.08
2023-01-18T14:05:58.617Z,8.14
2023-01-18T14:08:31.425Z,7.78
2023-01-18T14:11:04.676Z,7.75
2023-01-18T14:13:55.139Z,7.49
2023-01-18T14:16:32.095Z,7.39
2023-01-18T14:19:22.139Z,7.48
2023-01-18T14:21:53.477Z,7.68
2023-01-18T14:24:51.416Z,7.96
2023-01-18T14:27:24.307Z,7.78
2023-01-18T14:30:11.305Z,7.57
2023-01-18T14:32:54.204Z,7.33
2023-01-18T14:35:25.738Z,7.37
2023-01-18T14:38:17.860Z,7.47
2023-01-18T14:40:48.486Z,7.27
2023-01-18T14:43:26.050Z,7.41
2023-01-18T14:46:07.595Z,7.68
2023-01-18T14:48:48.640Z,7.70
2023-01-18T14:51:18.941Z,7.88
2023-01-18T14:53:52.799Z,7.90
2023-01-18T14:56:23.114Z,8.03
2023-01-18T14:59:03.246Z,8.30
2023-01-18T15:01:38.418Z,7.99
2023-01-18T15:04:19.621Z,7.60
2023-01-18T15:06:51.965Z,7.47
2023-01-18T15:09:22.757Z,7.45
2023-01-18T15:11:53.488Z,7.47
2023-01-18T15:14:31.458Z,7.38
2023-01-18T15:17:00.651Z,7.21
2023-01-18T15:19:44.123Z,7.28
2023-01-18T15:22:14.663Z,7.22
2023-01-18T15:24:45.130Z,7.36
2023-01-18T15:27:16.468Z,7.40
2023-01-18T15:29:55.690Z,7.53
2023-01-18T15:32:29.653Z,7.45
2023-01-18T15:34:59.191Z,7.42
2023-01-18T15:37:33.689Z,7.41
2023-01-18T15:40:22.717Z,7.44
2023-01-18T15:43:05.932Z,7.45
2023-01-18T15:45:38.722Z,7.24
2023-01-18T15:48:22.418Z,7.24
2023-01-18T15:50:53.245Z,7.28
2023-01-18T15:53:34.144Z,7.30
2023-01-18T15:56:07.186Z,7.12
2023-01-18T15:58:50.033Z,7.07
2023-01-18T16:01:29.365Z,7.11
2023-01-18T16:04:05.682Z,7.07
2023-01-18T16:06:37.119Z,6.88
2023-01-18T16:09:12.653Z,7.14
2023-01-18T16:11:40.692Z,7.26
2023-01-18T16:14:33.088Z,7.21
2023-01-18T16:17:18.061Z,7.24
2023-01-18T16:19:48.423Z,7.18
2023-01-18T16:22:23.650Z,7.02
2023-01-18T16:25:06.392Z,6.85
2023-01-18T16:27:46.588Z,6.89
2023-01-18T16:30:20.442Z,7.09
2023-01-18T16:32:48.211Z,6.99
2023-01-18T16:35:18.464Z,7.10
2023-01-18T16:37:47.018Z,7.15
2023-01-18T16:40:21.116Z,7.10
2023-01-18T16:43:05.368Z,6.98
2023-01-18T16:45:38.092Z,7.06
2023-01-18T16:48:06.776Z,7.18
2023-01-18T16:50:34.554Z,7.15
2023-01-18T16:53:03.908Z,7.27
2023-01-18T16:55:31.857Z,7.19
2023-01-18T16:58:00.265Z,7.29
2023-01-18T17:00:35.629Z,7.19
2023-01-18T17:03:03.552Z,7.19
2023-01-18T17:05:31.111Z,7.15
2023-01-18T17:08:00.394Z,6.79
2023-01-18T17:10:38.995Z,6.69
2023-01-18T17:13:06.937Z,7.04
2023-01-18T17:15:34.904Z,7.22
2023-01-18T17:18:04.886Z,7.30
2023-01-18T17:20:33.050Z,7.15
2023-01-18T17:23:01.865Z,7.06
2023-01-18T17:25:29.582Z,7.03
2023-01-18T17:27:58.430Z,6.76
2023-01-18T17:30:26.042Z,6.55
2023-01-18T17:32:53.662Z,6.51
2023-01-18T17:35:23.269Z,6.65
2023-01-18T17:37:57.455Z,6.38
2023-01-18T17:40:40.155Z,6.51
2023-01-18T17:43:15.163Z,6.50
2023-01-18T17:45:58.717Z,6.59
2023-01-18T17:48:28.609Z,6.31
2023-01-18T17:50:56.212Z,6.28
2023-01-18T17:53:23.701Z,6.35
2023-01-18T17:55:51.651Z,6.53
2023-01-18T17:58:19.921Z,6.44
2023-01-18T18:00:48.013Z,6.29
2023-01-18T18:03:16.479Z,6.41
2023-01-18T18:05:45.371Z,6.59
2023-01-18T18:08:12.962Z,6.41
2023-01-18T18:10:43.363Z,6.59
2023-01-18T18:13:11.323Z,6.57
2023-01-18T18:15:39.294Z,6.58
2023-01-18T18:18:12.305Z,6.54
2023-01-18T18:20:50.632Z,6.60
2023-01-18T18:23:18.136Z,6.57
2023-01-18T18:25:47.671Z,6.65
2023-01-18T18:28:15.660Z,6.64
2023-01-18T18:30:49.081Z,6.72
2023-01-18T18:33:16.972Z,6.76
2023-01-18T18:35:48.141Z,6.77
2023-01-18T18:38:18.892Z,6.70
2023-01-18T18:40:46.933Z,6.60
2023-01-18T18:43:14.443Z,6.69
2023-01-18T18:45:44.641Z,6.65
2023-01-18T18:48:13.191Z,6.60
2023-01-18T18:50:41.438Z,6.61
2023-01-18T18:53:09.063Z,6.58
2023-01-18T18:55:36.702Z,6.40
2023-01-18T18:58:06.428Z,6.44
2023-01-18T19:00:35.056Z,6.32
2023-01-18T19:03:23.954Z,6.27
2023-01-18T19:05:52.845Z,6.35
2023-01-18T19:08:21.437Z,6.34
2023-01-18T19:10:50.606Z,6.40
2023-01-18T19:13:19.326Z,6.66
2023-01-18T19:15:47.952Z,6.70
2023-01-18T19:18:15.784Z,6.66
2023-01-18T19:20:43.441Z,6.69
2023-01-18T19:23:11.424Z,6.55
2023-01-18T19:25:39.573Z,6.70
2023-01-18T19:28:07.639Z,6.84
2023-01-18T19:30:35.599Z,6.91
2023-01-18T19:33:03.647Z,6.65
2023-01-18T19:35:31.538Z,6.36
2023-01-18T19:38:00.996Z,6.48
2023-01-18T19:40:28.631Z,6.40
2023-01-18T19:42:59.562Z,6.41
2023-01-18T19:45:28.951Z,6.68
2023-01-18T19:48:00.073Z,6.61
2023-01-18T19:50:29.425Z,6.65
2023-01-18T19:52:57.943Z,6.69
2023-01-18T19:55:25.789Z,6.60
2023-01-18T19:57:56.793Z,6.78
2023-01-18T20:00:25.812Z,6.86
2023-01-18T20:02:53.705Z,6.89
2023-01-18T20:05:21.915Z,6.82
2023-01-18T20:07:50.420Z,6.64
2023-01-18T20:10:20.464Z,6.63
2023-01-18T20:12:49.343Z,6.77
2023-01-18T20:15:18.907Z,6.70
2023-01-18T20:17:46.362Z,6.73
2023-01-18T20:20:20.986Z,6.75
2023-01-18T20:22:57.392Z,6.60
2023-01-18T20:25:25.595Z,6.55
2023-01-18T20:27:53.436Z,6.48
2023-01-18T20:30:21.754Z,6.47
2023-01-18T20:32:49.752Z,6.60
2023-01-18T20:35:17.829Z,6.52
2023-01-18T20:37:45.686Z,6.55
2023-01-18T20:40:13.871Z,6.65
2023-01-18T20:42:41.561Z,6.59
2023-01-18T20:45:09.462Z,6.70
2023-01-18T20:47:37.147Z,6.57
2023-01-18T20:50:05.318Z,6.63
2023-01-18T20:52:32.908Z,6.68
2023-01-18T20:55:00.916Z,6.65
2023-01-18T20:57:31.984Z,6.69
2023-01-18T21:00:00.101Z,6.46
2023-01-18T21:02:28.082Z,6.49
2023-01-18T21:04:56.172Z,6.59
2023-01-18T21:07:24.191Z,6.70
2023-01-18T21:09:52.144Z,6.51
2023-01-18T21:12:19.771Z,6.59
2023-01-18T21:14:48.050Z,6.38
2023-01-18T21:17:16.178Z,6.41
2023-01-18T21:19:46.154Z,6.29
2023-01-18T21:22:15.071Z,6.28
2023-01-18T21:24:43.136Z,6.01
2023-01-18T21:27:10.879Z,6.09
2023-01-18T21:29:38.598Z,6.07
2023-01-18T21:32:06.821Z,6.00
2023-01-18T21:34:34.715Z,5.99
2023-01-18T21:37:02.831Z,6.04
2023-01-18T21:39:30.999Z,6.08
2023-01-18T21:42:17.693Z,5.95
2023-01-18T21:45:04.264Z,5.93
2023-01-18T21:47:32.701Z,5.85
2023-01-18T21:50:18.972Z,5.99
2023-01-18T21:53:06.161Z,5.91
2023-01-18T21:55:40.885Z,6.00
2023-01-18T21:58:26.862Z,6.05
2023-01-18T22:00:54.974Z,6.18
2023-01-18T22:03:22.547Z,6.17
2023-01-18T22:05:50.030Z,6.15
2023-01-18T22:08:18.330Z,6.08
2023-01-18T22:10:50.003Z,6.08
2023-01-18T22:13:17.959Z,6.17
2023-01-18T22:15:45.457Z,6.12
2023-01-18T22:18:12.927Z,6.06
2023-01-18T22:20:40.406Z,6.07
2023-01-18T22:23:07.951Z,6.11
2023-01-18T22:25:36.004Z,6.08
2023-01-18T22:28:04.039Z,6.23
2023-01-18T22:30:31.942Z,6.15
2023-01-18T22:33:00.141Z,6.16
2023-01-18T22:35:30.725Z,6.11
2023-01-18T22:37:58.639Z,6.13
2023-01-18T22:40:26.394Z,5.92
2023-01-18T22:42:54.811Z,5.61
2023-01-18T22:45:22.435Z,5.80
2023-01-18T22:47:50.030Z,5.92
2023-01-18T22:50:17.752Z,6.05
2023-01-18T22:52:45.727Z,6.10
2023-01-18T22:55:14.468Z,6.02
2023-01-18T22:57:42.163Z,6.06
2023-01-18T23:00:11.271Z,6.16
2023-01-18T23:02:39.276Z,6.22
2023-01-18T23:05:07.590Z,6.07
2023-01-18T23:07:35.203Z,6.19
2023-01-18T23:10:02.724Z,6.19
2023-01-18T23:12:30.224Z,6.22
2023-01-18T23:15:16.278Z,6.34
2023-01-18T23:17:45.120Z,6.22
2023-01-18T23:20:15.993Z,6.21
2023-01-18T23:22:45.102Z,6.13
2023-01-18T23:25:12.931Z,6.21
2023-01-18T23:27:40.611Z,6.09
2023-01-18T23:30:09.270Z,6.21
2023-01-18T23:32:37.456Z,6.12
2023-01-18T23:35:06.155Z,6.08
2023-01-18T23:37:34.240Z,6.12
2023-01-18T23:40:20.615Z,6.14
2023-01-18T23:43:07.171Z,6.10
2023-01-18T23:45:53.102Z,6.07
2023-01-18T23:48:40.006Z,6.01
2023-01-18T23:51:27.697Z,6.08
2023-01-18T23:54:14.052Z,6.11
2023-01-18T23:56:42.654Z,6.03
2023-01-18T23:59:10.718Z,6.02
